ANA1752 RJFU-RJKA
Flight info
| Callsign | ANA1752 |
|---|---|
| Flight time | N/A |
| Altitude | 38000 |
| Route | KAZSA A582 HKC Y45 BOMAP Y25 KANAH |
| Aircraft | B737/M-SDE2E3FGHIRWXY/LB1 |
Departure
| Time | 2026-04-25 23:35 |
|---|---|
| Airport | Nagasaki Airport (RJFU) |
Arrival
| Time | N/A |
|---|---|
| Airport | Amami Airport (RJKA) |
| Time | Latitude | Longitude | Altitude | Speed | Heading |
|---|---|---|---|---|---|
| 2026-04-25 22:57 | 32.91619 | 129.91933 | 10 ft | 0 kts | 48° |
| 2026-04-25 23:18 | 32.91619 | 129.91931 | 10 ft | 0 kts | 48° |
| 2026-04-25 23:18 | 32.91609 | 129.91919 | 10 ft | 2 kts | 47° |
| 2026-04-25 23:18 | 32.91599 | 129.91907 | 10 ft | 2 kts | 48° |
| 2026-04-25 23:19 | 32.91589 | 129.91893 | 10 ft | 2 kts | 48° |
| 2026-04-25 23:19 | 32.91579 | 129.91879 | 10 ft | 2 kts | 48° |
| 2026-04-25 23:19 | 32.91569 | 129.91867 | 10 ft | 2 kts | 48° |
| 2026-04-25 23:19 | 32.91559 | 129.91853 | 10 ft | 2 kts | 48° |
| 2026-04-25 23:20 | 32.91549 | 129.91840 | 10 ft | 2 kts | 48° |
| 2026-04-25 23:20 | 32.91539 | 129.91827 | 10 ft | 2 kts | 48° |
| 2026-04-25 23:20 | 32.91533 | 129.91818 | 10 ft | 2 kts | 49° |
| 2026-04-25 23:20 | 32.91520 | 129.91812 | 10 ft | 2 kts | 352° |
| 2026-04-25 23:21 | 32.91511 | 129.91815 | 10 ft | 0 kts | 320° |
| 2026-04-25 23:21 | 32.91506 | 129.91821 | 10 ft | 0 kts | 317° |
| 2026-04-25 23:23 | 32.91510 | 129.91817 | 10 ft | 1 kts | 318° |
| 2026-04-25 23:23 | 32.91518 | 129.91809 | 10 ft | 0 kts | 319° |
| 2026-04-25 23:25 | 32.91522 | 129.91805 | 10 ft | 4 kts | 320° |
| 2026-04-25 23:26 | 32.91548 | 129.91779 | 10 ft | 5 kts | 319° |
| 2026-04-25 23:26 | 32.91586 | 129.91739 | 10 ft | 7 kts | 320° |
| 2026-04-25 23:26 | 32.91627 | 129.91693 | 10 ft | 11 kts | 317° |
| 2026-04-25 23:26 | 32.91691 | 129.91626 | 10 ft | 11 kts | 317° |
| 2026-04-25 23:27 | 32.91752 | 129.91562 | 10 ft | 12 kts | 319° |
| 2026-04-25 23:27 | 32.91824 | 129.91481 | 10 ft | 14 kts | 317° |
| 2026-04-25 23:27 | 32.91896 | 129.91406 | 10 ft | 13 kts | 317° |
| 2026-04-25 23:27 | 32.91964 | 129.91333 | 10 ft | 12 kts | 318° |
| 2026-04-25 23:28 | 32.92030 | 129.91264 | 10 ft | 12 kts | 320° |
| 2026-04-25 23:28 | 32.92090 | 129.91197 | 10 ft | 11 kts | 316° |
| 2026-04-25 23:28 | 32.92149 | 129.91138 | 10 ft | 10 kts | 323° |
| 2026-04-25 23:28 | 32.92205 | 129.91080 | 10 ft | 10 kts | 312° |
| 2026-04-25 23:29 | 32.92255 | 129.91023 | 10 ft | 6 kts | 319° |
| 2026-04-25 23:29 | 32.92255 | 129.91022 | 10 ft | 0 kts | 319° |
| 2026-04-25 23:30 | 32.92271 | 129.91007 | 10 ft | 7 kts | 319° |
| 2026-04-25 23:30 | 32.92308 | 129.90967 | 10 ft | 7 kts | 317° |
| 2026-04-25 23:30 | 32.92348 | 129.90924 | 10 ft | 8 kts | 318° |
| 2026-04-25 23:31 | 32.92411 | 129.90857 | 10 ft | 13 kts | 318° |
| 2026-04-25 23:31 | 32.92480 | 129.90784 | 10 ft | 12 kts | 318° |
| 2026-04-25 23:31 | 32.92545 | 129.90715 | 10 ft | 12 kts | 318° |
| 2026-04-25 23:31 | 32.92608 | 129.90648 | 10 ft | 11 kts | 318° |
| 2026-04-25 23:32 | 32.92668 | 129.90584 | 10 ft | 11 kts | 324° |
| 2026-04-25 23:32 | 32.92722 | 129.90526 | 10 ft | 10 kts | 318° |
| 2026-04-25 23:32 | 32.92771 | 129.90471 | 10 ft | 9 kts | 304° |
| 2026-04-25 23:32 | 32.92780 | 129.90402 | 10 ft | 8 kts | 252° |
| 2026-04-25 23:33 | 32.92747 | 129.90349 | 10 ft | 7 kts | 230° |
| 2026-04-25 23:33 | 32.92709 | 129.90309 | 10 ft | 7 kts | 205° |
| 2026-04-25 23:33 | 32.92664 | 129.90317 | 10 ft | 6 kts | 154° |
| 2026-04-25 23:33 | 32.92631 | 129.90349 | 10 ft | 5 kts | 139° |
| 2026-04-25 23:34 | 32.92601 | 129.90379 | 10 ft | 5 kts | 139° |
| 2026-04-25 23:34 | 32.92551 | 129.90431 | 10 ft | 30 kts | 138° |
| 2026-04-25 23:34 | 32.92200 | 129.90808 | 10 ft | 103 kts | 137° |
| 2026-04-25 23:34 | 32.91500 | 129.91554 | 35 ft | 160 kts | 138° |
| 2026-04-25 23:35 | 32.90636 | 129.92433 | 686 ft | 164 kts | 139° |
| 2026-04-25 23:35 | 32.89811 | 129.93257 | 1471 ft | 162 kts | 136° |
| 2026-04-25 23:35 | 32.88931 | 129.94174 | 1990 ft | 173 kts | 137° |
| 2026-04-25 23:35 | 32.87971 | 129.95113 | 2515 ft | 184 kts | 139° |
| 2026-04-25 23:36 | 32.86957 | 129.96094 | 3036 ft | 196 kts | 138° |
| 2026-04-25 23:36 | 32.85876 | 129.97153 | 3567 ft | 207 kts | 138° |
| 2026-04-25 23:36 | 32.84741 | 129.98262 | 4055 ft | 221 kts | 139° |
| 2026-04-25 23:36 | 32.83499 | 129.99472 | 4559 ft | 236 kts | 139° |
| 2026-04-25 23:37 | 32.82195 | 130.00743 | 5060 ft | 251 kts | 139° |
| 2026-04-25 23:37 | 32.80810 | 130.02092 | 5628 ft | 262 kts | 140° |
| 2026-04-25 23:37 | 32.79403 | 130.03459 | 6479 ft | 262 kts | 141° |
| 2026-04-25 23:37 | 32.78010 | 130.04814 | 7290 ft | 264 kts | 141° |
| 2026-04-25 23:38 | 32.76591 | 130.06192 | 8080 ft | 266 kts | 141° |
| 2026-04-25 23:38 | 32.75131 | 130.07613 | 8803 ft | 274 kts | 141° |
| 2026-04-25 23:38 | 32.73665 | 130.09036 | 9569 ft | 278 kts | 142° |
| 2026-04-25 23:38 | 32.72167 | 130.10492 | 10378 ft | 282 kts | 142° |
| 2026-04-25 23:39 | 32.70607 | 130.12004 | 10821 ft | 300 kts | 142° |
| 2026-04-25 23:39 | 32.68926 | 130.13632 | 11307 ft | 317 kts | 142° |
| 2026-04-25 23:39 | 32.67194 | 130.15311 | 11757 ft | 333 kts | 143° |
| 2026-04-25 23:39 | 32.65372 | 130.17076 | 12504 ft | 340 kts | 143° |
| 2026-04-25 23:40 | 32.63545 | 130.18849 | 13336 ft | 344 kts | 143° |
| 2026-04-25 23:40 | 32.61681 | 130.20657 | 14143 ft | 349 kts | 144° |
| 2026-04-25 23:40 | 32.59730 | 130.22429 | 14934 ft | 353 kts | 149° |
| 2026-04-25 23:40 | 32.57629 | 130.23868 | 15751 ft | 354 kts | 158° |
| 2026-04-25 23:41 | 32.55363 | 130.24997 | 16542 ft | 356 kts | 163° |
| 2026-04-25 23:41 | 32.53009 | 130.25964 | 17290 ft | 360 kts | 165° |
| 2026-04-25 23:41 | 32.50612 | 130.26877 | 18101 ft | 363 kts | 166° |
| 2026-04-25 23:41 | 32.48188 | 130.27789 | 18858 ft | 367 kts | 167° |
| 2026-04-25 23:42 | 32.45785 | 130.28706 | 19630 ft | 369 kts | 167° |
| 2026-04-25 23:42 | 32.43324 | 130.29658 | 20323 ft | 371 kts | 168° |
| 2026-04-25 23:42 | 32.40853 | 130.30624 | 21035 ft | 375 kts | 168° |
| 2026-04-25 23:42 | 32.38374 | 130.31596 | 21752 ft | 377 kts | 169° |
| 2026-04-25 23:43 | 32.35889 | 130.32575 | 22455 ft | 379 kts | 169° |
| 2026-04-25 23:43 | 32.33403 | 130.33550 | 23086 ft | 382 kts | 169° |
| 2026-04-25 23:43 | 32.30853 | 130.34554 | 23744 ft | 384 kts | 170° |
| 2026-04-25 23:43 | 32.28326 | 130.35547 | 24420 ft | 385 kts | 171° |
| 2026-04-25 23:44 | 32.25782 | 130.36546 | 25058 ft | 387 kts | 171° |
| 2026-04-25 23:44 | 32.23241 | 130.37546 | 25760 ft | 386 kts | 171° |
| 2026-04-25 23:44 | 32.20693 | 130.38545 | 26308 ft | 388 kts | 172° |
| 2026-04-25 23:44 | 32.18142 | 130.39545 | 26941 ft | 388 kts | 172° |
| 2026-04-25 23:45 | 32.15553 | 130.40556 | 27369 ft | 393 kts | 172° |
| 2026-04-25 23:45 | 32.12974 | 130.41568 | 28062 ft | 391 kts | 173° |
| 2026-04-25 23:45 | 32.10369 | 130.42581 | 28394 ft | 397 kts | 173° |
| 2026-04-25 23:45 | 32.07733 | 130.43605 | 29041 ft | 396 kts | 173° |
| 2026-04-25 23:46 | 32.05151 | 130.44608 | 29624 ft | 395 kts | 174° |
| 2026-04-25 23:46 | 32.02554 | 130.45615 | 30136 ft | 396 kts | 174° |
| 2026-04-25 23:46 | 31.99900 | 130.46637 | 30491 ft | 400 kts | 174° |
| 2026-04-25 23:46 | 31.97280 | 130.47650 | 31095 ft | 399 kts | 174° |
| 2026-04-25 23:47 | 31.94641 | 130.48666 | 31365 ft | 404 kts | 174° |
| 2026-04-25 23:47 | 31.91943 | 130.49701 | 31723 ft | 408 kts | 174° |
| 2026-04-25 23:47 | 31.89273 | 130.50738 | 32517 ft | 401 kts | 174° |
| 2026-04-25 23:47 | 31.86634 | 130.51769 | 33231 ft | 396 kts | 175° |
| 2026-04-25 23:48 | 31.84017 | 130.52785 | 33789 ft | 395 kts | 175° |
| 2026-04-25 23:48 | 31.81431 | 130.53784 | 34367 ft | 393 kts | 175° |
| 2026-04-25 23:48 | 31.78830 | 130.54784 | 34869 ft | 393 kts | 175° |
| 2026-04-25 23:48 | 31.76248 | 130.55771 | 35476 ft | 388 kts | 176° |
| 2026-04-25 23:49 | 31.73670 | 130.56609 | 35919 ft | 381 kts | 180° |
| 2026-04-25 23:49 | 31.71078 | 130.57100 | 36311 ft | 372 kts | 187° |
| 2026-04-25 23:49 | 31.68539 | 130.57187 | 36788 ft | 360 kts | 193° |
| 2026-04-25 23:49 | 31.66061 | 130.56873 | 37306 ft | 349 kts | 199° |
| 2026-04-25 23:50 | 31.63753 | 130.56194 | 37717 ft | 341 kts | 206° |
| 2026-04-25 23:50 | 31.61546 | 130.55186 | 37981 ft | 337 kts | 210° |
| 2026-04-25 23:50 | 31.59400 | 130.54050 | 37985 ft | 336 kts | 210° |
| 2026-04-25 23:51 | 31.55137 | 130.51875 | 37982 ft | 337 kts | 209° |
| 2026-04-25 23:51 | 31.50727 | 130.49829 | 37974 ft | 339 kts | 208° |
| 2026-04-25 23:52 | 31.46300 | 130.47858 | 37973 ft | 340 kts | 207° |
| 2026-04-25 23:52 | 31.41883 | 130.45912 | 37968 ft | 340 kts | 207° |
| 2026-04-25 23:53 | 31.37460 | 130.43973 | 37969 ft | 338 kts | 207° |
| 2026-04-25 23:53 | 31.33078 | 130.42056 | 37964 ft | 336 kts | 207° |
| 2026-04-25 23:54 | 31.28679 | 130.40129 | 37959 ft | 340 kts | 207° |
| 2026-04-25 23:54 | 31.24245 | 130.38133 | 37967 ft | 337 kts | 208° |
| 2026-04-25 23:55 | 31.19880 | 130.36063 | 37963 ft | 338 kts | 208° |
| 2026-04-25 23:55 | 31.15531 | 130.34000 | 37959 ft | 336 kts | 208° |
| 2026-04-25 23:56 | 31.11155 | 130.31934 | 37960 ft | 344 kts | 208° |
| 2026-04-25 23:56 | 31.06620 | 130.29799 | 37953 ft | 353 kts | 207° |
| 2026-04-25 23:57 | 31.02071 | 130.27678 | 37958 ft | 352 kts | 208° |
| 2026-04-25 23:57 | 30.97541 | 130.25571 | 37951 ft | 348 kts | 207° |
| 2026-04-25 23:58 | 30.93017 | 130.23463 | 37953 ft | 352 kts | 207° |
| 2026-04-25 23:58 | 30.88464 | 130.21338 | 37949 ft | 352 kts | 208° |
| 2026-04-25 23:59 | 30.83901 | 130.19218 | 37946 ft | 351 kts | 207° |
| 2026-04-25 23:59 | 30.79370 | 130.17116 | 37947 ft | 351 kts | 208° |
| 2026-04-26 00:00 | 30.74814 | 130.14999 | 37946 ft | 351 kts | 208° |
| 2026-04-26 00:00 | 30.70287 | 130.12898 | 37948 ft | 352 kts | 208° |
| 2026-04-26 00:01 | 30.65757 | 130.10800 | 37952 ft | 352 kts | 207° |
| 2026-04-26 00:01 | 30.61204 | 130.08693 | 37945 ft | 351 kts | 207° |
| 2026-04-26 00:02 | 30.56634 | 130.06583 | 37950 ft | 352 kts | 208° |
| 2026-04-26 00:02 | 30.52075 | 130.04523 | 37946 ft | 350 kts | 207° |
| 2026-04-26 00:03 | 30.47530 | 130.02483 | 37948 ft | 354 kts | 207° |
| 2026-04-26 00:03 | 30.42914 | 130.00409 | 37959 ft | 351 kts | 207° |
| 2026-04-26 00:04 | 30.38381 | 129.98375 | 37966 ft | 350 kts | 206° |
| 2026-04-26 00:04 | 30.33844 | 129.96336 | 37968 ft | 352 kts | 207° |
| 2026-04-26 00:05 | 30.29252 | 129.94394 | 37809 ft | 346 kts | 205° |
| 2026-04-26 00:05 | 30.27023 | 129.93484 | 37652 ft | 334 kts | 206° |
| 2026-04-26 00:05 | 30.24849 | 129.92601 | 37431 ft | 324 kts | 206° |
| 2026-04-26 00:05 | 30.22770 | 129.91750 | 37064 ft | 316 kts | 206° |
| 2026-04-26 00:06 | 30.20720 | 129.90904 | 36603 ft | 311 kts | 206° |
| 2026-04-26 00:06 | 30.18689 | 129.90059 | 36097 ft | 310 kts | 206° |
| 2026-04-26 00:06 | 30.16651 | 129.89210 | 35558 ft | 311 kts | 206° |
| 2026-04-26 00:06 | 30.14625 | 129.88365 | 34986 ft | 311 kts | 206° |
| 2026-04-26 00:07 | 30.12573 | 129.87509 | 34402 ft | 314 kts | 206° |
| 2026-04-26 00:07 | 30.10527 | 129.86659 | 33807 ft | 314 kts | 206° |
| 2026-04-26 00:07 | 30.08451 | 129.85802 | 33200 ft | 316 kts | 206° |
| 2026-04-26 00:07 | 30.06375 | 129.84943 | 32592 ft | 317 kts | 205° |
| 2026-04-26 00:08 | 30.04299 | 129.84085 | 32132 ft | 319 kts | 204° |
| 2026-04-26 00:08 | 30.02153 | 129.83199 | 31662 ft | 340 kts | 204° |
| 2026-04-26 00:08 | 29.99810 | 129.82384 | 31132 ft | 355 kts | 199° |
| 2026-04-26 00:08 | 29.97390 | 129.81836 | 30605 ft | 356 kts | 194° |
| 2026-04-26 00:09 | 29.94947 | 129.81445 | 30074 ft | 351 kts | 194° |
| 2026-04-26 00:09 | 29.92554 | 129.81111 | 29560 ft | 346 kts | 193° |
| 2026-04-26 00:09 | 29.90176 | 129.80783 | 29053 ft | 340 kts | 193° |
| 2026-04-26 00:09 | 29.87831 | 129.80450 | 28544 ft | 336 kts | 194° |
| 2026-04-26 00:10 | 29.85551 | 129.80116 | 28045 ft | 333 kts | 194° |
| 2026-04-26 00:10 | 29.83259 | 129.79771 | 27542 ft | 329 kts | 194° |
| 2026-04-26 00:10 | 29.81005 | 129.79427 | 27046 ft | 325 kts | 194° |
| 2026-04-26 00:10 | 29.78747 | 129.79077 | 26555 ft | 322 kts | 194° |
| 2026-04-26 00:11 | 29.76542 | 129.78734 | 26063 ft | 319 kts | 195° |
| 2026-04-26 00:11 | 29.74379 | 129.78398 | 25585 ft | 316 kts | 195° |
| 2026-04-26 00:11 | 29.72183 | 129.78055 | 25102 ft | 322 kts | 194° |
| 2026-04-26 00:11 | 29.69907 | 129.77693 | 24600 ft | 335 kts | 195° |
| 2026-04-26 00:12 | 29.67583 | 129.77325 | 24079 ft | 338 kts | 194° |
| 2026-04-26 00:12 | 29.65264 | 129.76965 | 23562 ft | 334 kts | 194° |
| 2026-04-26 00:12 | 29.62944 | 129.76610 | 22923 ft | 334 kts | 195° |
| 2026-04-26 00:12 | 29.60643 | 129.76256 | 22373 ft | 331 kts | 194° |
| 2026-04-26 00:13 | 29.58363 | 129.75905 | 21816 ft | 329 kts | 194° |
| 2026-04-26 00:13 | 29.56099 | 129.75552 | 21200 ft | 329 kts | 194° |
| 2026-04-26 00:13 | 29.53840 | 129.75200 | 20632 ft | 327 kts | 194° |
| 2026-04-26 00:13 | 29.51592 | 129.74850 | 20036 ft | 327 kts | 194° |
| 2026-04-26 00:14 | 29.49303 | 129.74497 | 19401 ft | 328 kts | 194° |
| 2026-04-26 00:14 | 29.47057 | 129.74149 | 18842 ft | 326 kts | 194° |
| 2026-04-26 00:14 | 29.44816 | 129.73801 | 18208 ft | 327 kts | 194° |
| 2026-04-26 00:14 | 29.42546 | 129.73448 | 17710 ft | 334 kts | 194° |
| 2026-04-26 00:15 | 29.40187 | 129.73076 | 17611 ft | 346 kts | 194° |
| 2026-04-26 00:15 | 29.37802 | 129.72700 | 17577 ft | 351 kts | 194° |
| 2026-04-26 00:15 | 29.35401 | 129.72334 | 17348 ft | 338 kts | 194° |
| 2026-04-26 00:15 | 29.33112 | 129.71992 | 17117 ft | 326 kts | 193° |
| 2026-04-26 00:16 | 29.30891 | 129.71660 | 16472 ft | 321 kts | 194° |
| 2026-04-26 00:16 | 29.28660 | 129.71312 | 15413 ft | 331 kts | 194° |
| 2026-04-26 00:16 | 29.26360 | 129.70946 | 14187 ft | 344 kts | 194° |
| 2026-04-26 00:16 | 29.23973 | 129.70566 | 13054 ft | 351 kts | 193° |
| 2026-04-26 00:17 | 29.21574 | 129.70193 | 12349 ft | 344 kts | 192° |
| 2026-04-26 00:17 | 29.19238 | 129.69841 | 11984 ft | 332 kts | 192° |
| 2026-04-26 00:17 | 29.16963 | 129.69495 | 11539 ft | 327 kts | 191° |
| 2026-04-26 00:17 | 29.14715 | 129.69150 | 11094 ft | 323 kts | 191° |
| 2026-04-26 00:18 | 29.12504 | 129.68948 | 10967 ft | 313 kts | 185° |
| 2026-04-26 00:18 | 29.10363 | 129.68953 | 10717 ft | 300 kts | 182° |
| 2026-04-26 00:18 | 29.08302 | 129.69037 | 10382 ft | 290 kts | 181° |
| 2026-04-26 00:18 | 29.06317 | 129.69125 | 9918 ft | 288 kts | 180° |
| 2026-04-26 00:19 | 29.04301 | 129.69199 | 9339 ft | 290 kts | 181° |
| 2026-04-26 00:19 | 29.02296 | 129.69260 | 8976 ft | 287 kts | 181° |
| 2026-04-26 00:19 | 29.00312 | 129.69313 | 8614 ft | 284 kts | 181° |
| 2026-04-26 00:19 | 28.98344 | 129.69367 | 8249 ft | 282 kts | 180° |
| 2026-04-26 00:20 | 28.96408 | 129.69418 | 8182 ft | 269 kts | 180° |
| 2026-04-26 00:20 | 28.94550 | 129.69470 | 8174 ft | 270 kts | 180° |
| 2026-04-26 00:20 | 28.92682 | 129.69522 | 7887 ft | 263 kts | 180° |
| 2026-04-26 00:20 | 28.90848 | 129.69572 | 7370 ft | 264 kts | 180° |
| 2026-04-26 00:21 | 28.89011 | 129.69623 | 6921 ft | 261 kts | 180° |
| 2026-04-26 00:21 | 28.87199 | 129.69670 | 6460 ft | 258 kts | 180° |
| 2026-04-26 00:21 | 28.85413 | 129.69717 | 5944 ft | 261 kts | 180° |
| 2026-04-26 00:21 | 28.83590 | 129.69769 | 5526 ft | 262 kts | 180° |
| 2026-04-26 00:22 | 28.81764 | 129.69818 | 5185 ft | 260 kts | 180° |
| 2026-04-26 00:22 | 28.79953 | 129.69865 | 4850 ft | 258 kts | 181° |
| 2026-04-26 00:22 | 28.78182 | 129.69910 | 4523 ft | 255 kts | 181° |
| 2026-04-26 00:22 | 28.76388 | 129.69957 | 4193 ft | 253 kts | 180° |
| 2026-04-26 00:23 | 28.74643 | 129.70007 | 3868 ft | 251 kts | 181° |
| 2026-04-26 00:23 | 28.72898 | 129.70056 | 3531 ft | 248 kts | 181° |
| 2026-04-26 00:23 | 28.71207 | 129.70100 | 3301 ft | 237 kts | 181° |
| 2026-04-26 00:23 | 28.69606 | 129.70145 | 3220 ft | 221 kts | 181° |
| 2026-04-26 00:24 | 28.68077 | 129.70186 | 3156 ft | 216 kts | 181° |
| 2026-04-26 00:24 | 28.66570 | 129.70226 | 3090 ft | 217 kts | 181° |
| 2026-04-26 00:24 | 28.65049 | 129.70281 | 3018 ft | 216 kts | 178° |
| 2026-04-26 00:24 | 28.63595 | 129.70677 | 2930 ft | 221 kts | 154° |
| 2026-04-26 00:25 | 28.62484 | 129.71913 | 2718 ft | 228 kts | 122° |
| 2026-04-26 00:25 | 28.61814 | 129.73575 | 2462 ft | 229 kts | 114° |
| 2026-04-26 00:25 | 28.61212 | 129.75203 | 2345 ft | 223 kts | 116° |
| 2026-04-26 00:25 | 28.60549 | 129.76822 | 2294 ft | 228 kts | 120° |
| 2026-04-26 00:26 | 28.59649 | 129.78276 | 2243 ft | 219 kts | 141° |
| 2026-04-26 00:26 | 28.58370 | 129.78937 | 2184 ft | 191 kts | 178° |
| 2026-04-26 00:26 | 28.57089 | 129.78812 | 2123 ft | 182 kts | 197° |
| 2026-04-26 00:26 | 28.55908 | 129.78360 | 2074 ft | 177 kts | 207° |
| 2026-04-26 00:27 | 28.54808 | 129.77731 | 2035 ft | 178 kts | 210° |
| 2026-04-26 00:27 | 28.53721 | 129.77107 | 1965 ft | 164 kts | 209° |
| 2026-04-26 00:27 | 28.52760 | 129.76581 | 1860 ft | 144 kts | 209° |
| 2026-04-26 00:27 | 28.51881 | 129.76103 | 1761 ft | 137 kts | 210° |
| 2026-04-26 00:28 | 28.51031 | 129.75629 | 1644 ft | 134 kts | 210° |
| 2026-04-26 00:28 | 28.50203 | 129.75163 | 1450 ft | 131 kts | 210° |
| 2026-04-26 00:28 | 28.49377 | 129.74709 | 1276 ft | 132 kts | 209° |
| 2026-04-26 00:28 | 28.48552 | 129.74257 | 1097 ft | 132 kts | 209° |
| 2026-04-26 00:29 | 28.47722 | 129.73795 | 922 ft | 132 kts | 209° |
| 2026-04-26 00:29 | 28.46892 | 129.73340 | 745 ft | 132 kts | 208° |
| 2026-04-26 00:29 | 28.46054 | 129.72893 | 570 ft | 132 kts | 206° |
| 2026-04-26 00:29 | 28.45203 | 129.72466 | 377 ft | 133 kts | 210° |
| 2026-04-26 00:30 | 28.44380 | 129.71994 | 187 ft | 133 kts | 207° |
| 2026-04-26 00:30 | 28.43555 | 129.71527 | 19 ft | 127 kts | 207° |
| 2026-04-26 00:30 | 28.42985 | 129.71216 | 19 ft | 53 kts | 208° |